Airfield :
LOGIN :

Register | Disclaimer

   EN    FR    IT 

 










Legend :    VFR   Marginal VFR   IFR   Intensive IFR   Very Intensive IFR
Visi :
Ceiling :
>= 8 km
>= 3000ft
5 to 8 km
1000 to 3000 ft
1500m to 5 km
500 to 1000 ft
800 to 1500m
200 to 500 ft
< 800m
< 200 ft
Symbols :   Thunderstorms  Fog  Heavy snow  Heavy precipitations  Wind > 20 kt
SIGMETs :     Misc.  Thunderstorms  Icing  Turbulence  Mountain Waves  Volcanic Ashes






- Airport Elevation : 12 ft
- IATA code : BCN


LEBL - Barcelone

CURRENT METAR :
  • 011200Z 06008KT 040V110 9999 FEW030 14/04 Q1016 NOSIG

EXPIRED METARs :
  • 011130Z 07009KT 050V110 9999 FEW030 SCT060 13/03 Q1017 NOSIG
  • 011100Z 02005KT 290V090 9999 FEW030 BKN060 12/05 Q1017 NOSIG
  • 011030Z 32006KT 9999 FEW030 BKN055 11/05 Q1017 NOSIG
  • 011000Z 31007KT 9999 FEW030 BKN050 10/05 Q1017 NOSIG
  • 010930Z 32006KT 9999 FEW030 BKN048 10/05 Q1017 NOSIG

TAF TAF LEBL
Valid from the 01 at 12:00 until the 02 at 12:00 UTC


011100Z 0112/0212 07008KT 9999 FEW030 BKN050 TX15/0112Z TN07/0206Z
BECMG 0118/0120 33008KT
PROB30
TEMPO 0200/0207 SHRA FEW030TCU
BECMG 0208/0210 05010KT



MET'MAP, your aeronautical weather chart ! - Copyright ORBIFLY December 2007 - Disclaimer

ORBIFLY MET'MAP TEAM :

Programming & Development : Alexandra Zaïnal
Original concept : Baudouin d'Aumeries
Technical & hardware support : Manuel Goepfert
Assistance : Marc-Olivier Méhu




SOURCES & CREDITS :

   NOAA